Time;durP1;ratioP1;P1;durP2;ratioP2;P2;SDS_P1;SDS_P2;PMS_P1;PMS_P2;Temp;Humidity;BMP_temperature;BMP_pressure;BME280_temperature;BME280_humidity;BME280_pressure;Samples;Min_cycle;Max_cycle;Signal;HPM_P1;HPM_P2
2021/09/20 00:00:14;;;;;;;3.08;1.80;;;;;;;;;;5089014;28;20075;-74
2021/09/20 00:02:40;;;;;;;2.75;1.80;;;;;;;;;;5087744;28;20082;-74
2021/09/20 00:05:08;;;;;;;3.17;1.90;;;;;;;;;;5086030;28;20570;-74
2021/09/20 00:07:36;;;;;;;3.10;2.00;;;;;;;;;;5086282;28;20094;-74
2021/09/20 00:10:03;;;;;;;2.53;1.67;;;;;;;;;;5071327;28;20110;-76
2021/09/20 00:12:29;;;;;;;3.70;1.88;;;;;;;;;;5080201;28;20043;-76
2021/09/20 00:14:56;;;;;;;3.20;2.10;;;;;;;;;;5077509;28;20113;-75
2021/09/20 00:17:22;;;;;;;2.97;1.80;;;;;;;;;;5074715;28;20060;-74
2021/09/20 00:19:49;;;;;;;3.90;2.15;;;;;;;;;;5078308;28;20083;-74
2021/09/20 00:22:15;;;;;;;3.13;1.80;;;;;;;;;;5072939;28;20052;-74
2021/09/20 00:24:41;;;;;;;3.17;1.90;;;;;;;;;;5087060;28;20063;-74
2021/09/20 00:27:10;;;;;;;3.75;1.98;;;;;;;;;;5087274;28;20109;-74
2021/09/20 00:29:36;;;;;;;2.95;1.83;;;;;;;;;;5084430;28;20062;-74
2021/09/20 00:32:03;;;;;;;2.90;2.00;;;;;;;;;;5089558;28;20429;-74
2021/09/20 00:34:30;;;;;;;3.38;1.95;;;;;;;;;;5067985;28;20470;-74
2021/09/20 00:36:56;;;;;;;3.13;2.03;;;;;;;;;;5068456;28;20153;-75
2021/09/20 00:39:23;;;;;;;3.28;2.33;;;;;;;;;;5074053;28;20062;-75
2021/09/20 00:41:49;;;;;;;4.03;2.00;;;;;;;;;;5068612;28;20064;-75
2021/09/20 00:44:15;;;;;;;3.67;2.00;;;;;;;;;;5067070;28;20064;-75
2021/09/20 00:46:42;;;;;;;2.63;1.77;;;;;;;;;;5084396;28;20059;-75
2021/09/20 00:49:08;;;;;;;3.47;1.92;;;;;;;;;;5074879;28;20044;-75
2021/09/20 00:51:35;;;;;;;3.38;2.10;;;;;;;;;;5087598;28;20071;-75
2021/09/20 00:54:01;;;;;;;2.90;1.75;;;;;;;;;;5080006;28;20059;-76
2021/09/20 00:56:28;;;;;;;3.47;1.80;;;;;;;;;;5085336;28;20102;-74
2021/09/20 00:58:56;;;;;;;3.83;2.40;;;;;;;;;;5086440;28;20093;-73
2021/09/20 01:01:23;;;;;;;2.70;1.80;;;;;;;;;;5080352;28;20121;-75
2021/09/20 01:03:49;;;;;;;3.78;2.08;;;;;;;;;;5086755;28;20036;-76
2021/09/20 01:06:16;;;;;;;3.50;2.17;;;;;;;;;;5052281;28;20094;-76
2021/09/20 01:08:42;;;;;;;2.95;1.90;;;;;;;;;;5074539;28;20067;-75
2021/09/20 01:11:09;;;;;;;2.85;1.75;;;;;;;;;;5073347;28;20495;-76
2021/09/20 01:13:35;;;;;;;2.20;1.80;;;;;;;;;;5080400;28;20143;-74
2021/09/20 01:16:01;;;;;;;2.90;2.00;;;;;;;;;;5079215;28;20063;-74
2021/09/20 01:18:28;;;;;;;3.63;2.60;;;;;;;;;;5086912;28;20080;-74
2021/09/20 01:20:54;;;;;;;2.85;2.13;;;;;;;;;;5082106;28;20056;-74
2021/09/20 01:23:21;;;;;;;2.67;1.80;;;;;;;;;;5069969;28;20487;-75
2021/09/20 01:25:47;;;;;;;3.03;2.15;;;;;;;;;;5070007;28;20106;-74
2021/09/20 01:28:14;;;;;;;4.22;2.10;;;;;;;;;;5087673;28;20449;-74
2021/09/20 01:30:40;;;;;;;2.90;1.92;;;;;;;;;;5085759;28;20090;-75
2021/09/20 01:33:07;;;;;;;3.30;2.15;;;;;;;;;;5082151;28;20051;-74
2021/09/20 01:35:33;;;;;;;2.70;1.90;;;;;;;;;;5065960;28;20064;-74
2021/09/20 01:38:00;;;;;;;3.95;2.58;;;;;;;;;;5065126;28;20060;-74
2021/09/20 01:40:27;;;;;;;3.28;2.13;;;;;;;;;;5081090;28;20519;-75
2021/09/20 01:42:54;;;;;;;3.05;1.88;;;;;;;;;;5063172;28;21143;-75
2021/09/20 01:45:20;;;;;;;2.78;1.80;;;;;;;;;;5071532;28;20040;-75
2021/09/20 01:47:47;;;;;;;3.85;2.15;;;;;;;;;;5065367;28;20040;-75
2021/09/20 01:50:14;;;;;;;4.10;2.55;;;;;;;;;;5068214;28;20060;-75
2021/09/20 01:52:41;;;;;;;3.28;2.28;;;;;;;;;;5072841;28;20060;-74
2021/09/20 01:55:08;;;;;;;2.88;2.00;;;;;;;;;;5085516;28;20066;-75
2021/09/20 01:57:35;;;;;;;3.80;2.28;;;;;;;;;;5080113;28;20040;-74
2021/09/20 02:00:01;;;;;;;3.08;1.83;;;;;;;;;;5083382;28;20132;-75
2021/09/20 02:02:28;;;;;;;2.90;2.05;;;;;;;;;;5086413;28;20484;-74
2021/09/20 02:04:54;;;;;;;3.63;2.13;;;;;;;;;;5077762;28;20078;-75
2021/09/20 02:07:20;;;;;;;3.40;1.95;;;;;;;;;;5086291;28;20113;-75
2021/09/20 02:09:47;;;;;;;3.15;2.25;;;;;;;;;;5066901;28;20060;-75
2021/09/20 02:12:13;;;;;;;3.60;2.10;;;;;;;;;;5067950;28;20090;-75
2021/09/20 02:14:39;;;;;;;4.25;2.50;;;;;;;;;;5073421;28;20072;-75
2021/09/20 02:17:06;;;;;;;3.42;1.80;;;;;;;;;;5063728;28;20060;-75
2021/09/20 02:19:32;;;;;;;2.95;2.00;;;;;;;;;;5078742;28;20078;-75
2021/09/20 02:21:59;;;;;;;3.58;2.45;;;;;;;;;;5072771;28;20068;-75
2021/09/20 02:24:25;;;;;;;3.05;2.03;;;;;;;;;;5068764;28;20068;-75
2021/09/20 02:26:51;;;;;;;4.78;2.42;;;;;;;;;;5066126;28;20078;-75
2021/09/20 02:29:18;;;;;;;3.50;2.15;;;;;;;;;;5082682;28;20168;-75
2021/09/20 02:31:44;;;;;;;3.22;2.10;;;;;;;;;;5085560;28;20056;-75
2021/09/20 02:34:11;;;;;;;3.97;2.08;;;;;;;;;;5079460;28;20091;-75
2021/09/20 02:36:37;;;;;;;7.55;2.15;;;;;;;;;;5064336;28;20075;-75
2021/09/20 02:39:04;;;;;;;3.85;2.20;;;;;;;;;;5066401;28;20493;-75
2021/09/20 02:41:30;;;;;;;3.03;2.00;;;;;;;;;;5065281;28;20064;-75
2021/09/20 02:43:57;;;;;;;3.20;1.90;;;;;;;;;;5066442;28;20072;-75
2021/09/20 02:46:23;;;;;;;3.33;2.20;;;;;;;;;;5073511;28;20409;-74
2021/09/20 02:48:50;;;;;;;2.70;1.90;;;;;;;;;;5073640;28;20052;-75
2021/09/20 02:51:16;;;;;;;3.22;2.10;;;;;;;;;;5073961;28;20087;-75
2021/09/20 02:53:42;;;;;;;3.13;1.92;;;;;;;;;;5083766;28;20056;-75
2021/09/20 02:56:09;;;;;;;4.00;2.30;;;;;;;;;;5084159;28;20055;-74
2021/09/20 02:58:35;;;;;;;2.65;1.85;;;;;;;;;;5085462;28;20074;-74
2021/09/20 03:01:01;;;;;;;3.28;2.10;;;;;;;;;;5084255;28;20048;-74
2021/09/20 03:03:28;;;;;;;2.80;1.95;;;;;;;;;;5084290;28;20059;-74
2021/09/20 03:05:54;;;;;;;3.53;2.38;;;;;;;;;;5059668;28;20044;-75
2021/09/20 03:08:21;;;;;;;3.70;2.17;;;;;;;;;;5074049;28;20052;-74
2021/09/20 03:10:47;;;;;;;2.70;1.77;;;;;;;;;;5081176;28;20074;-74
2021/09/20 03:13:14;;;;;;;2.53;1.67;;;;;;;;;;5065709;28;20052;-74
2021/09/20 03:15:40;;;;;;;3.70;2.22;;;;;;;;;;5082391;28;20055;-74
2021/09/20 03:18:06;;;;;;;3.08;2.10;;;;;;;;;;5086725;28;20062;-76
2021/09/20 03:20:33;;;;;;;3.20;2.15;;;;;;;;;;5082402;28;20438;-74
2021/09/20 03:22:59;;;;;;;3.90;2.22;;;;;;;;;;5084583;28;20064;-74
2021/09/20 03:25:26;;;;;;;3.25;2.22;;;;;;;;;;5088003;28;20075;-74
2021/09/20 03:27:52;;;;;;;3.63;2.00;;;;;;;;;;5088636;28;20212;-74
2021/09/20 03:30:19;;;;;;;4.28;2.13;;;;;;;;;;5074713;28;20063;-74
2021/09/20 03:32:46;;;;;;;3.30;2.17;;;;;;;;;;5070893;28;20066;-74
2021/09/20 03:35:14;;;;;;;3.28;2.38;;;;;;;;;;5070673;28;20458;-74
2021/09/20 03:37:44;;;;;;;2.92;2.15;;;;;;;;;;5087467;28;20052;-74
2021/09/20 03:40:11;;;;;;;3.10;2.10;;;;;;;;;;5085787;28;20537;-74
2021/09/20 03:42:38;;;;;;;3.78;2.10;;;;;;;;;;5087174;28;20124;-74
2021/09/20 03:45:05;;;;;;;3.75;2.13;;;;;;;;;;5086924;28;20453;-74
2021/09/20 03:47:31;;;;;;;4.20;2.33;;;;;;;;;;5084415;28;20044;-73
2021/09/20 03:49:58;;;;;;;3.28;2.25;;;;;;;;;;5084102;28;20075;-74
2021/09/20 03:52:24;;;;;;;4.28;2.30;;;;;;;;;;5088509;28;20052;-74
2021/09/20 03:54:51;;;;;;;4.03;2.50;;;;;;;;;;5085162;28;20068;-74
2021/09/20 03:57:17;;;;;;;3.83;2.17;;;;;;;;;;5080719;28;20094;-74
2021/09/20 03:59:43;;;;;;;3.08;2.00;;;;;;;;;;5068333;28;20056;-74
2021/09/20 04:02:10;;;;;;;3.00;2.20;;;;;;;;;;5069611;28;20055;-74
2021/09/20 04:04:36;;;;;;;3.40;2.20;;;;;;;;;;5074797;28;20117;-74
2021/09/20 04:07:05;;;;;;;3.17;2.15;;;;;;;;;;5085596;28;20059;-74
2021/09/20 04:09:31;;;;;;;2.72;1.95;;;;;;;;;;5087771;28;20060;-75
2021/09/20 04:11:58;;;;;;;3.08;2.05;;;;;;;;;;5083726;28;20059;-75
2021/09/20 04:14:24;;;;;;;3.72;2.22;;;;;;;;;;5085193;28;20151;-75
2021/09/20 04:16:50;;;;;;;4.18;2.40;;;;;;;;;;5085090;28;20059;-74
2021/09/20 04:19:17;;;;;;;3.72;2.40;;;;;;;;;;5085933;28;20132;-74
2021/09/20 04:21:43;;;;;;;2.97;2.08;;;;;;;;;;5085219;28;20435;-74
2021/09/20 04:24:11;;;;;;;3.10;2.10;;;;;;;;;;5069055;28;20071;-75
2021/09/20 04:26:37;;;;;;;2.83;1.90;;;;;;;;;;5064882;28;20072;-75
2021/09/20 04:29:03;;;;;;;3.17;2.10;;;;;;;;;;5067181;28;20048;-76
2021/09/20 04:31:30;;;;;;;3.60;2.20;;;;;;;;;;5068096;28;20063;-75
2021/09/20 04:33:56;;;;;;;3.13;2.30;;;;;;;;;;5079750;28;20067;-75
2021/09/20 04:36:23;;;;;;;3.90;2.20;;;;;;;;;;5086670;28;20472;-75
2021/09/20 04:38:49;;;;;;;3.47;2.40;;;;;;;;;;5085517;28;20055;-76
2021/09/20 04:41:15;;;;;;;4.25;2.20;;;;;;;;;;5088491;28;20066;-75
2021/09/20 04:43:42;;;;;;;3.45;2.13;;;;;;;;;;5071341;28;20125;-75
2021/09/20 04:46:08;;;;;;;6.45;2.42;;;;;;;;;;5089496;28;20052;-75
2021/09/20 04:48:35;;;;;;;5.07;2.60;;;;;;;;;;5088011;28;20105;-76
2021/09/20 04:51:01;;;;;;;4.88;2.38;;;;;;;;;;5088749;28;20058;-76
2021/09/20 04:53:28;;;;;;;4.28;2.10;;;;;;;;;;5084085;28;20056;-76
2021/09/20 04:55:54;;;;;;;3.58;2.50;;;;;;;;;;5078221;28;20032;-77
2021/09/20 04:58:21;;;;;;;3.85;2.30;;;;;;;;;;5086618;28;20056;-76
2021/09/20 05:00:47;;;;;;;3.50;2.03;;;;;;;;;;5085194;28;20575;-76
2021/09/20 05:03:13;;;;;;;5.30;2.50;;;;;;;;;;5083361;28;20650;-76
2021/09/20 05:05:40;;;;;;;4.72;2.30;;;;;;;;;;5089023;28;20063;-76
2021/09/20 05:08:06;;;;;;;3.95;2.60;;;;;;;;;;5088457;28;20055;-76
2021/09/20 05:10:33;;;;;;;8.25;2.28;;;;;;;;;;5081151;28;20055;-76
2021/09/20 05:12:59;;;;;;;6.45;2.10;;;;;;;;;;5088604;28;20067;-76
2021/09/20 05:15:26;;;;;;;4.95;2.50;;;;;;;;;;5083653;28;20087;-76
2021/09/20 05:17:52;;;;;;;5.90;2.47;;;;;;;;;;5086886;28;20087;-77
2021/09/20 05:20:21;;;;;;;5.75;2.42;;;;;;;;;;5086708;28;20060;-77
2021/09/20 05:22:48;;;;;;;4.85;1.98;;;;;;;;;;5084444;28;20462;-75
2021/09/20 05:25:15;;;;;;;9.57;2.63;;;;;;;;;;5085718;28;20067;-77
2021/09/20 05:27:42;;;;;;;4.65;2.30;;;;;;;;;;5075868;28;20082;-75
2021/09/20 05:30:09;;;;;;;5.57;2.50;;;;;;;;;;5085585;28;20451;-77
2021/09/20 05:32:36;;;;;;;5.53;2.45;;;;;;;;;;5084587;28;20067;-75
2021/09/20 05:35:03;;;;;;;6.32;2.30;;;;;;;;;;5087782;28;20052;-75
2021/09/20 05:37:29;;;;;;;6.50;2.25;;;;;;;;;;5089503;28;20032;-74
2021/09/20 05:39:56;;;;;;;6.82;2.65;;;;;;;;;;5088496;28;20448;-75
2021/09/20 05:42:22;;;;;;;6.53;2.25;;;;;;;;;;5082119;28;20048;-75
2021/09/20 05:44:49;;;;;;;6.88;2.65;;;;;;;;;;5078713;28;20136;-76
2021/09/20 05:47:15;;;;;;;8.82;2.78;;;;;;;;;;5081707;28;20058;-76
2021/09/20 05:49:41;;;;;;;9.50;2.67;;;;;;;;;;5079752;28;20039;-77
2021/09/20 05:52:08;;;;;;;6.15;2.85;;;;;;;;;;5078779;28;20447;-76
2021/09/20 05:54:34;;;;;;;7.72;3.08;;;;;;;;;;5067010;28;20040;-76
2021/09/20 05:57:01;;;;;;;5.07;2.30;;;;;;;;;;5092382;28;20024;-77
2021/09/20 05:59:27;;;;;;;6.72;2.60;;;;;;;;;;5091297;28;20059;-77
2021/09/20 06:01:54;;;;;;;5.93;2.50;;;;;;;;;;5082015;28;20044;-77
2021/09/20 06:04:20;;;;;;;6.22;2.17;;;;;;;;;;5078055;28;20591;-77
2021/09/20 06:06:47;;;;;;;6.25;2.47;;;;;;;;;;5081810;28;20047;-76
2021/09/20 06:09:13;;;;;;;4.60;2.33;;;;;;;;;;5091808;28;20430;-76
2021/09/20 06:11:40;;;;;;;5.53;2.30;;;;;;;;;;5073318;28;20037;-78
2021/09/20 06:14:09;;;;;;;11.73;2.40;;;;;;;;;;5072789;28;20549;-76
2021/09/20 06:16:35;;;;;;;5.40;2.05;;;;;;;;;;5072222;28;20040;-77
2021/09/20 06:19:02;;;;;;;7.10;2.70;;;;;;;;;;5087342;28;20394;-77
2021/09/20 06:21:28;;;;;;;4.25;2.35;;;;;;;;;;5086607;28;20052;-77
2021/09/20 06:23:54;;;;;;;6.63;2.42;;;;;;;;;;5079866;28;20268;-78
2021/09/20 06:26:25;;;;;;;6.65;2.40;;;;;;;;;;5068971;28;20073;-77
2021/09/20 06:28:51;;;;;;;5.80;2.20;;;;;;;;;;5079919;28;20522;-77
2021/09/20 06:31:18;;;;;;;6.88;2.58;;;;;;;;;;5073715;28;20036;-77
2021/09/20 06:33:44;;;;;;;5.00;2.70;;;;;;;;;;5076618;28;20058;-76
2021/09/20 06:36:11;;;;;;;5.32;2.50;;;;;;;;;;5072093;28;20036;-77
2021/09/20 06:38:37;;;;;;;4.57;2.30;;;;;;;;;;5074127;28;20449;-77
2021/09/20 06:41:07;;;;;;;4.13;2.47;;;;;;;;;;5092284;28;20028;-77
2021/09/20 06:43:33;;;;;;;3.88;2.20;;;;;;;;;;5047066;28;20032;-76
2021/09/20 06:45:59;;;;;;;4.05;2.30;;;;;;;;;;5080633;28;20067;-76
2021/09/20 06:48:26;;;;;;;5.13;2.25;;;;;;;;;;5063932;28;20592;-76
2021/09/20 06:50:52;;;;;;;4.40;2.17;;;;;;;;;;5081005;28;20067;-76
2021/09/20 06:53:19;;;;;;;4.72;2.50;;;;;;;;;;5065178;28;20517;-77
2021/09/20 06:55:45;;;;;;;5.35;2.53;;;;;;;;;;5065906;28;20040;-76
2021/09/20 06:58:12;;;;;;;4.47;2.55;;;;;;;;;;5059219;28;20052;-76
2021/09/20 07:00:38;;;;;;;3.80;2.20;;;;;;;;;;5051345;28;20056;-76
2021/09/20 07:03:05;;;;;;;7.25;2.20;;;;;;;;;;5072885;28;20044;-77
2021/09/20 07:05:31;;;;;;;2.85;2.10;;;;;;;;;;5070448;28;20067;-76
2021/09/20 07:08:00;;;;;;;4.78;2.42;;;;;;;;;;5082669;28;20178;-76
2021/09/20 07:10:28;;;;;;;5.13;2.33;;;;;;;;;;5077304;28;20056;-77
2021/09/20 07:12:55;;;;;;;5.63;1.90;;;;;;;;;;5060738;28;20037;-77
2021/09/20 07:15:21;;;;;;;4.43;2.10;;;;;;;;;;5093561;28;20036;-77
2021/09/20 07:17:47;;;;;;;4.88;2.15;;;;;;;;;;5079258;28;20066;-77
2021/09/20 07:20:14;;;;;;;3.95;2.10;;;;;;;;;;5090454;28;20063;-77
2021/09/20 07:22:43;;;;;;;3.95;2.28;;;;;;;;;;5090458;28;20060;-76
2021/09/20 07:25:09;;;;;;;3.63;2.40;;;;;;;;;;5090031;28;20052;-77
2021/09/20 07:27:36;;;;;;;2.97;2.00;;;;;;;;;;5090712;28;20063;-76
2021/09/20 07:30:03;;;;;;;3.58;1.85;;;;;;;;;;5088128;28;20071;-76
2021/09/20 07:32:30;;;;;;;4.28;2.58;;;;;;;;;;5065097;28;20403;-76
2021/09/20 07:34:56;;;;;;;2.90;1.92;;;;;;;;;;5083828;28;20105;-76
2021/09/20 07:37:23;;;;;;;2.70;1.92;;;;;;;;;;5073943;28;20082;-77
2021/09/20 07:39:49;;;;;;;3.20;1.85;;;;;;;;;;5077172;28;20113;-77
2021/09/20 07:42:15;;;;;;;3.40;1.92;;;;;;;;;;5078042;28;20514;-77
2021/09/20 07:44:42;;;;;;;3.72;2.15;;;;;;;;;;5069691;28;20067;-76
2021/09/20 07:47:08;;;;;;;4.25;2.00;;;;;;;;;;5084485;28;20051;-77
2021/09/20 07:49:35;;;;;;;2.75;2.03;;;;;;;;;;5071740;28;20093;-76
2021/09/20 07:52:01;;;;;;;3.03;2.00;;;;;;;;;;5078369;28;20200;-77
2021/09/20 07:54:28;;;;;;;3.10;2.03;;;;;;;;;;5077248;28;20047;-75
2021/09/20 07:56:54;;;;;;;3.28;2.08;;;;;;;;;;5092616;28;20028;-78
2021/09/20 07:59:20;;;;;;;4.57;2.20;;;;;;;;;;5095419;28;20070;-77
2021/09/20 08:01:47;;;;;;;3.63;1.92;;;;;;;;;;5084853;28;20484;-77
2021/09/20 08:04:13;;;;;;;4.20;2.13;;;;;;;;;;5087988;28;20039;-77
2021/09/20 08:06:40;;;;;;;3.45;2.28;;;;;;;;;;5084299;28;20377;-77
2021/09/20 08:09:06;;;;;;;5.28;2.40;;;;;;;;;;5065954;28;20052;-78
2021/09/20 08:11:33;;;;;;;3.42;2.15;;;;;;;;;;5087603;28;20056;-77
2021/09/20 08:13:59;;;;;;;3.45;2.05;;;;;;;;;;5084703;28;20108;-77
2021/09/20 08:16:26;;;;;;;4.43;2.22;;;;;;;;;;5080061;28;20547;-77
2021/09/20 08:18:52;;;;;;;4.47;2.30;;;;;;;;;;5069042;28;20100;-77
2021/09/20 08:21:19;;;;;;;3.22;2.13;;;;;;;;;;5061285;28;20037;-77
2021/09/20 08:23:45;;;;;;;7.13;2.60;;;;;;;;;;5068425;28;20071;-77
2021/09/20 08:26:12;;;;;;;3.67;1.95;;;;;;;;;;5073817;28;20472;-77
2021/09/20 08:28:38;;;;;;;4.03;2.20;;;;;;;;;;5072040;28;20429;-78
2021/09/20 08:31:05;;;;;;;3.10;2.08;;;;;;;;;;5085444;28;20664;-78
2021/09/20 08:33:32;;;;;;;4.03;2.00;;;;;;;;;;5067191;28;20060;-78
2021/09/20 08:35:58;;;;;;;4.65;2.40;;;;;;;;;;5086940;28;20035;-78
2021/09/20 08:38:25;;;;;;;4.05;1.90;;;;;;;;;;5079810;28;20044;-75
2021/09/20 08:40:52;;;;;;;3.28;2.13;;;;;;;;;;5086345;28;20727;-76
2021/09/20 08:43:18;;;;;;;3.83;1.92;;;;;;;;;;5079048;28;20060;-77
2021/09/20 08:45:45;;;;;;;2.67;1.90;;;;;;;;;;5068072;28;20382;-77
2021/09/20 08:48:13;;;;;;;3.97;2.22;;;;;;;;;;5068022;28;20025;-77
2021/09/20 08:50:39;;;;;;;3.78;1.85;;;;;;;;;;5086883;28;20446;-77
2021/09/20 08:53:08;;;;;;;3.15;2.15;;;;;;;;;;5078917;28;20099;-77
2021/09/20 08:55:35;;;;;;;2.95;2.00;;;;;;;;;;5068081;28;20040;-77
2021/09/20 08:58:02;;;;;;;4.10;2.08;;;;;;;;;;5071485;28;20106;-77
2021/09/20 09:00:28;;;;;;;3.85;2.25;;;;;;;;;;5091461;28;20478;-77
2021/09/20 09:02:55;;;;;;;4.00;1.98;;;;;;;;;;5074802;28;20028;-76
2021/09/20 09:05:23;;;;;;;3.53;1.80;;;;;;;;;;5081763;28;20044;-77
2021/09/20 09:07:51;;;;;;;2.90;1.95;;;;;;;;;;5080566;28;20045;-78
2021/09/20 09:10:18;;;;;;;3.75;1.75;;;;;;;;;;5072415;28;20090;-77
2021/09/20 09:12:45;;;;;;;2.83;1.83;;;;;;;;;;5046382;28;20083;-77
2021/09/20 09:15:20;;;;;;;3.90;1.95;;;;;;;;;;5065565;28;20112;-77
2021/09/20 09:17:47;;;;;;;4.15;2.28;;;;;;;;;;5077999;28;20101;-77
2021/09/20 09:20:14;;;;;;;3.20;2.00;;;;;;;;;;5085319;28;20581;-76
2021/09/20 09:22:48;;;;;;;3.63;2.10;;;;;;;;;;5077900;28;20512;-78
2021/09/20 09:25:28;;;;;;;4.05;2.08;;;;;;;;;;5062798;28;20040;-76
2021/09/20 09:27:59;;;;;;;3.27;2.10;;;;;;;;;;5081956;28;20115;-77
2021/09/20 09:30:26;;;;;;;2.70;1.83;;;;;;;;;;5065378;28;20449;-76
2021/09/20 09:33:22;;;;;;;3.30;1.90;;;;;;;;;;5083204;28;20059;-77
2021/09/20 09:35:50;;;;;;;3.03;1.85;;;;;;;;;;5075028;28;20024;-77
2021/09/20 09:38:17;;;;;;;3.40;2.10;;;;;;;;;;5078355;28;20032;-79
2021/09/20 09:40:45;;;;;;;3.00;2.10;;;;;;;;;;5073946;28;20085;-77
2021/09/20 09:43:11;;;;;;;3.53;1.85;;;;;;;;;;5063940;28;20406;-76
2021/09/20 09:45:38;;;;;;;2.53;1.63;;;;;;;;;;5073276;28;20072;-77
2021/09/20 09:48:10;;;;;;;3.63;1.90;;;;;;;;;;5072655;28;20028;-77
2021/09/20 09:51:03;;;;;;;3.10;1.63;;;;;;;;;;5042299;28;20029;-77
2021/09/20 09:53:37;;;;;;;3.90;2.28;;;;;;;;;;5057536;28;20082;-77
2021/09/20 09:56:17;;;;;;;3.05;1.95;;;;;;;;;;5082324;28;21210;-77
2021/09/20 09:58:52;;;;;;;3.80;2.15;;;;;;;;;;5071667;28;20564;-77
2021/09/20 10:01:20;;;;;;;3.78;1.80;;;;;;;;;;5088991;28;20468;-77
2021/09/20 10:04:07;;;;;;;2.65;1.80;;;;;;;;;;5085683;28;20038;-77
2021/09/20 10:06:43;;;;;;;3.08;1.85;;;;;;;;;;5078298;28;20044;-75
2021/09/20 10:09:10;;;;;;;4.00;2.22;;;;;;;;;;5054940;28;20028;-78
2021/09/20 10:11:37;;;;;;;3.13;2.00;;;;;;;;;;5076248;28;20061;-77
2021/09/20 10:14:03;;;;;;;3.20;2.08;;;;;;;;;;5060074;28;20067;-78
2021/09/20 10:16:32;;;;;;;4.22;2.50;;;;;;;;;;5062195;28;20036;-78
2021/09/20 10:19:02;;;;;;;3.10;2.05;;;;;;;;;;5071220;28;20055;-78
2021/09/20 10:21:28;;;;;;;2.63;1.75;;;;;;;;;;5086253;28;20588;-77
2021/09/20 10:23:55;;;;;;;2.75;1.80;;;;;;;;;;5071535;28;20431;-78
2021/09/20 10:26:22;;;;;;;2.92;1.98;;;;;;;;;;5072299;28;20077;-77
2021/09/20 10:28:50;;;;;;;3.22;1.88;;;;;;;;;;5082917;28;20033;-77
2021/09/20 10:31:17;;;;;;;3.33;2.00;;;;;;;;;;5075647;28;20056;-78
2021/09/20 10:33:44;;;;;;;2.47;1.73;;;;;;;;;;5063329;28;20056;-77
2021/09/20 10:36:10;;;;;;;2.47;1.80;;;;;;;;;;5058803;28;20496;-77
2021/09/20 10:38:36;;;;;;;2.42;1.60;;;;;;;;;;5068617;28;20063;-76
2021/09/20 10:41:12;;;;;;;14.32;3.90;;;;;;;;;;5068117;28;20502;-77
2021/09/20 10:43:39;;;;;;;14.80;4.18;;;;;;;;;;5060171;28;20110;-76
2021/09/20 10:46:19;;;;;;;16.52;6.25;;;;;;;;;;5065572;28;20056;-77
2021/09/20 10:48:47;;;;;;;17.65;5.22;;;;;;;;;;5067537;28;20421;-77
2021/09/20 10:51:13;;;;;;;14.52;4.75;;;;;;;;;;5056949;28;20111;-78
2021/09/20 10:53:40;;;;;;;14.18;4.93;;;;;;;;;;5064288;28;20025;-78
2021/09/20 10:56:07;;;;;;;11.73;4.82;;;;;;;;;;5077422;28;20104;-79
2021/09/20 10:58:34;;;;;;;14.35;4.95;;;;;;;;;;5084849;28;20056;-78
2021/09/20 11:01:15;;;;;;;17.73;4.80;;;;;;;;;;5050048;28;20087;-78
2021/09/20 11:03:45;;;;;;;13.38;4.68;;;;;;;;;;5083233;28;20159;-77
2021/09/20 11:06:25;;;;;;;13.45;4.40;;;;;;;;;;5070767;28;20086;-77
2021/09/20 11:09:03;;;;;;;16.30;4.60;;;;;;;;;;5061031;28;20060;-78
2021/09/20 11:11:35;;;;;;;11.77;4.28;;;;;;;;;;5074669;28;20028;-78
2021/09/20 11:14:03;;;;;;;13.80;5.30;;;;;;;;;;5070559;28;22219;-78
2021/09/20 11:16:44;;;;;;;13.00;4.75;;;;;;;;;;5064417;28;20121;-78
2021/09/20 11:19:26;;;;;;;14.98;4.57;;;;;;;;;;5076881;28;20262;-78
2021/09/20 11:22:04;;;;;;;11.60;4.65;;;;;;;;;;5056886;28;20072;-77
2021/09/20 11:24:31;;;;;;;16.35;5.70;;;;;;;;;;5065892;28;20027;-77
2021/09/20 11:26:58;;;;;;;12.75;4.25;;;;;;;;;;5066803;28;20118;-77
2021/09/20 11:29:25;;;;;;;11.52;4.65;;;;;;;;;;5057040;28;20130;-77
2021/09/20 11:31:52;;;;;;;9.00;3.90;;;;;;;;;;5064751;28;20864;-77
2021/09/20 11:34:28;;;;;;;12.20;4.75;;;;;;;;;;5077357;28;20052;-77
2021/09/20 11:36:54;;;;;;;13.77;4.32;;;;;;;;;;5083600;28;20121;-77
2021/09/20 11:39:21;;;;;;;10.52;4.53;;;;;;;;;;5087061;28;20040;-77
2021/09/20 11:41:57;;;;;;;10.73;3.88;;;;;;;;;;5086245;28;20028;-77
2021/09/20 11:44:28;;;;;;;10.27;4.38;;;;;;;;;;5082805;28;20070;-77
2021/09/20 11:46:55;;;;;;;9.52;4.10;;;;;;;;;;5085424;28;20051;-77
2021/09/20 11:49:21;;;;;;;9.60;3.58;;;;;;;;;;5090452;28;20097;-77
2021/09/20 11:51:51;;;;;;;10.38;3.70;;;;;;;;;;5088482;28;20208;-77
2021/09/20 11:54:28;;;;;;;7.67;3.90;;;;;;;;;;5079340;28;20105;-77
2021/09/20 11:56:54;;;;;;;11.63;4.25;;;;;;;;;;5068894;28;20105;-77
2021/09/20 11:59:21;;;;;;;11.30;3.80;;;;;;;;;;5083463;28;20063;-77
2021/09/20 12:01:47;;;;;;;8.80;3.28;;;;;;;;;;5088351;28;20067;-77
2021/09/20 12:04:14;;;;;;;8.38;3.65;;;;;;;;;;5090116;28;20466;-76
2021/09/20 12:06:40;;;;;;;10.05;4.00;;;;;;;;;;5089665;28;20064;-76
2021/09/20 12:09:06;;;;;;;10.27;3.78;;;;;;;;;;5091655;28;20064;-77
2021/09/20 12:11:33;;;;;;;6.15;3.08;;;;;;;;;;5073623;28;20450;-77
2021/09/20 12:13:59;;;;;;;6.18;3.15;;;;;;;;;;5066294;28;20068;-77
2021/09/20 12:16:27;;;;;;;9.30;3.50;;;;;;;;;;5082463;28;20060;-78
2021/09/20 12:18:54;;;;;;;7.85;3.30;;;;;;;;;;5071315;28;20056;-77
2021/09/20 12:21:20;;;;;;;8.18;3.55;;;;;;;;;;5067830;28;20067;-78
2021/09/20 12:23:49;;;;;;;8.63;3.78;;;;;;;;;;5079037;28;20515;-79
2021/09/20 12:26:17;;;;;;;8.63;3.40;;;;;;;;;;5088709;28;20064;-78
2021/09/20 12:28:48;;;;;;;6.63;3.20;;;;;;;;;;5089153;28;20572;-79
2021/09/20 12:31:20;;;;;;;9.10;3.08;;;;;;;;;;5095179;27;20051;-79
2021/09/20 12:33:46;;;;;;;8.00;3.20;;;;;;;;;;5090985;28;20488;-78
2021/09/20 12:36:20;;;;;;;7.25;2.80;;;;;;;;;;5088451;28;20678;-78
2021/09/20 12:38:56;;;;;;;9.73;3.63;;;;;;;;;;5088704;28;20047;-77
2021/09/20 12:41:23;;;;;;;8.23;3.45;;;;;;;;;;5089713;28;20039;-78
2021/09/20 12:43:51;;;;;;;6.18;2.67;;;;;;;;;;5088330;28;20052;-77
2021/09/20 12:46:20;;;;;;;5.43;2.90;;;;;;;;;;5090845;28;20036;-78
2021/09/20 12:48:51;;;;;;;8.85;2.83;;;;;;;;;;5088975;28;20028;-78
2021/09/20 12:51:18;;;;;;;5.43;2.80;;;;;;;;;;5090408;28;20632;-78
2021/09/20 12:53:45;;;;;;;8.02;2.97;;;;;;;;;;5083821;28;20041;-78
2021/09/20 12:56:13;;;;;;;6.28;3.00;;;;;;;;;;5083171;28;20101;-77
2021/09/20 12:58:49;;;;;;;5.13;2.90;;;;;;;;;;5088059;28;20090;-78
2021/09/20 13:01:27;;;;;;;6.53;3.15;;;;;;;;;;5088025;28;20047;-77
2021/09/20 13:04:00;;;;;;;8.68;2.80;;;;;;;;;;5088617;28;20493;-77
2021/09/20 13:06:27;;;;;;;5.90;2.60;;;;;;;;;;5091457;28;20449;-77
2021/09/20 13:09:04;;;;;;;6.05;2.88;;;;;;;;;;5089575;28;20027;-78
2021/09/20 13:11:51;;;;;;;5.10;2.42;;;;;;;;;;5088004;28;20077;-76
2021/09/20 13:14:22;;;;;;;5.68;2.47;;;;;;;;;;5092257;28;20047;-78
2021/09/20 13:16:48;;;;;;;3.75;2.58;;;;;;;;;;5090491;28;20484;-77
2021/09/20 13:19:15;;;;;;;6.63;2.58;;;;;;;;;;5091632;28;20032;-78
2021/09/20 13:21:41;;;;;;;4.85;2.50;;;;;;;;;;5071652;28;20041;-78
2021/09/20 13:24:08;;;;;;;5.53;2.40;;;;;;;;;;5085521;28;20037;-76
2021/09/20 13:26:36;;;;;;;4.93;2.42;;;;;;;;;;5092346;28;20100;-76
2021/09/20 13:29:03;;;;;;;3.83;2.10;;;;;;;;;;5092480;28;20050;-77
2021/09/20 13:31:31;;;;;;;4.97;2.45;;;;;;;;;;5083619;28;20040;-77
2021/09/20 13:34:00;;;;;;;5.18;2.47;;;;;;;;;;5086850;28;20094;-77
2021/09/20 13:36:27;;;;;;;5.07;2.42;;;;;;;;;;5078699;28;20036;-78
2021/09/20 13:38:53;;;;;;;6.07;2.33;;;;;;;;;;5086957;28;20050;-77
2021/09/20 13:41:21;;;;;;;4.60;2.40;;;;;;;;;;5087881;28;20036;-78
2021/09/20 13:43:48;;;;;;;5.38;2.70;;;;;;;;;;5092970;28;20071;-77
2021/09/20 13:46:17;;;;;;;5.63;2.67;;;;;;;;;;5076191;28;20037;-77
2021/09/20 13:48:45;;;;;;;5.03;2.60;;;;;;;;;;5080724;28;20180;-76
2021/09/20 13:51:11;;;;;;;6.75;2.38;;;;;;;;;;5088450;28;20037;-78
2021/09/20 13:53:38;;;;;;;6.03;2.53;;;;;;;;;;5071068;28;20027;-78
2021/09/20 13:56:04;;;;;;;4.43;2.00;;;;;;;;;;5072620;28;20020;-78
2021/09/20 13:58:31;;;;;;;3.80;2.17;;;;;;;;;;5090066;28;20386;-75
2021/09/20 14:00:58;;;;;;;6.13;2.28;;;;;;;;;;5072512;28;20021;-78
2021/09/20 14:03:24;;;;;;;6.07;2.60;;;;;;;;;;5086375;28;20040;-78
2021/09/20 14:05:51;;;;;;;6.50;2.50;;;;;;;;;;5088848;28;20557;-78
2021/09/20 14:08:19;;;;;;;4.03;2.50;;;;;;;;;;5084159;28;20090;-78
2021/09/20 14:10:46;;;;;;;5.28;2.53;;;;;;;;;;5085442;28;20016;-78
2021/09/20 14:13:13;;;;;;;4.25;2.55;;;;;;;;;;5089670;28;20028;-78
2021/09/20 14:15:40;;;;;;;5.18;2.63;;;;;;;;;;5085920;28;20147;-78
2021/09/20 14:18:08;;;;;;;5.97;2.38;;;;;;;;;;5093016;28;20032;-78
2021/09/20 14:20:34;;;;;;;4.40;2.17;;;;;;;;;;5091165;28;20052;-78
2021/09/20 14:23:01;;;;;;;5.65;2.35;;;;;;;;;;5091972;28;20475;-78
2021/09/20 14:25:29;;;;;;;4.55;2.53;;;;;;;;;;5103253;28;20265;-78
2021/09/20 14:27:56;;;;;;;4.22;2.60;;;;;;;;;;5110417;28;20070;-79
2021/09/20 14:30:23;;;;;;;4.70;2.45;;;;;;;;;;5106469;28;20036;-79
2021/09/20 14:32:50;;;;;;;4.10;2.17;;;;;;;;;;5082550;28;20032;-79
2021/09/20 14:35:16;;;;;;;4.18;2.33;;;;;;;;;;5095628;28;20020;-78
2021/09/20 14:37:43;;;;;;;5.78;2.58;;;;;;;;;;5100862;28;20036;-78
2021/09/20 14:40:11;;;;;;;5.22;2.55;;;;;;;;;;5105496;28;20044;-80
2021/09/20 14:42:38;;;;;;;5.22;2.40;;;;;;;;;;5088221;28;20086;-78